Time;durP1;ratioP1;P1;durP2;ratioP2;P2;SDS_P1;SDS_P2;PMS_P1;PMS_P2;Temp;Humidity;BMP_temperature;BMP_pressure;BME280_temperature;BME280_humidity;BME280_pressure;Samples;Min_cycle;Max_cycle;Signal;HPM_P1;HPM_P2
2022/06/17 00:00:51;;;;;;;1.90;1.90;;;17.20;1.00;;;;;;6326732;28;20319;-53
2022/06/17 00:03:55;;;;;;;2.40;2.30;;;17.10;1.00;;;;;;6331373;28;20289;-54
2022/06/17 00:07:01;;;;;;;2.30;2.20;;;17.00;1.00;;;;;;6343808;28;20364;-54
2022/06/17 00:10:07;;;;;;;2.10;2.10;;;17.00;1.00;;;;;;6339104;27;20251;-55
2022/06/17 00:13:15;;;;;;;2.30;2.30;;;17.00;1.00;;;;;;6350141;27;20836;-54
2022/06/17 00:16:21;;;;;;;2.20;2.20;;;16.90;1.00;;;;;;6361694;27;20804;-53
2022/06/17 00:19:25;;;;;;;1.80;1.80;;;16.90;1.00;;;;;;6324653;27;20243;-54
2022/06/17 00:22:29;;;;;;;2.10;2.10;;;16.90;1.00;;;;;;6333130;28;20243;-56
2022/06/17 00:25:35;;;;;;;2.30;2.30;;;16.90;1.00;;;;;;6334199;28;20373;-56
2022/06/17 00:28:39;;;;;;;2.03;1.90;;;16.80;1.00;;;;;;6328681;27;20852;-55
2022/06/17 00:31:43;;;;;;;2.13;2.13;;;16.80;1.00;;;;;;6341216;27;20311;-56
2022/06/17 00:34:46;;;;;;;2.60;2.47;;;16.80;1.00;;;;;;6353028;27;20619;-54
2022/06/17 00:37:49;;;;;;;2.43;2.33;;;16.70;1.00;;;;;;6345195;27;20341;-57
2022/06/17 00:40:53;;;;;;;2.40;2.20;;;16.70;1.00;;;;;;6332760;27;20310;-54
2022/06/17 00:43:59;;;;;;;2.50;2.30;;;16.70;1.00;;;;;;6348602;27;20318;-54
2022/06/17 00:47:08;;;;;;;2.27;2.17;;;16.60;1.00;;;;;;6341662;27;20741;-54
2022/06/17 00:50:18;;;;;;;2.40;2.37;;;16.60;1.00;;;;;;6331721;27;20380;-55
2022/06/17 00:53:23;;;;;;;2.57;2.37;;;16.60;1.00;;;;;;6333307;28;20235;-56
2022/06/17 00:56:30;;;;;;;2.70;2.60;;;16.60;1.00;;;;;;6334549;28;20315;-55
2022/06/17 00:59:36;;;;;;;3.23;2.97;;;16.60;1.00;;;;;;6323445;27;20737;-55
2022/06/17 01:02:45;;;;;;;3.13;2.93;;;16.60;1.00;;;;;;6313291;27;20232;-56
2022/06/17 01:05:52;;;;;;;3.83;3.53;;;16.70;1.00;;;;;;6346794;27;20235;-56
2022/06/17 01:12:27;;;;;;;4.87;3.50;;;16.80;1.00;;;;;;6324944;28;20327;-55
2022/06/17 01:15:34;;;;;;;3.30;3.10;;;16.80;1.00;;;;;;6358929;27;20338;-56
2022/06/17 01:18:42;;;;;;;3.50;3.20;;;16.80;1.00;;;;;;6350015;27;20352;-54
2022/06/17 01:21:49;;;;;;;2.80;2.70;;;16.80;1.00;;;;;;6325473;28;20288;-54
2022/06/17 01:24:57;;;;;;;3.00;2.80;;;16.80;1.00;;;;;;6345328;27;20518;-54
2022/06/17 01:28:03;;;;;;;2.70;2.37;;;16.80;1.00;;;;;;6355454;27;20295;-55
2022/06/17 01:31:08;;;;;;;2.50;2.40;;;16.80;1.00;;;;;;6313477;28;20235;-54
2022/06/17 01:34:13;;;;;;;2.80;2.60;;;16.80;1.00;;;;;;6333562;28;20224;-56
2022/06/17 01:37:17;;;;;;;2.20;2.20;;;16.80;1.00;;;;;;6327708;28;20237;-56
2022/06/17 01:40:22;;;;;;;2.47;2.40;;;16.70;1.00;;;;;;6332722;28;20646;-55
2022/06/17 01:43:30;;;;;;;5.03;2.60;;;16.70;1.00;;;;;;6334420;28;20326;-55
2022/06/17 01:46:37;;;;;;;2.80;2.70;;;16.70;1.00;;;;;;6327360;28;20255;-55
2022/06/17 01:49:44;;;;;;;2.70;2.60;;;16.70;1.00;;;;;;6326924;28;20481;-55
2022/06/17 01:52:53;;;;;;;3.40;2.70;;;16.60;1.00;;;;;;6323326;28;20338;-56
2022/06/17 01:56:02;;;;;;;2.80;2.63;;;16.60;1.00;;;;;;6330486;28;20327;-55
2022/06/17 01:59:09;;;;;;;2.50;2.43;;;16.50;1.00;;;;;;6332065;28;20285;-55
2022/06/17 02:02:15;;;;;;;2.50;2.40;;;16.50;1.00;;;;;;6334674;28;21003;-55
2022/06/17 02:05:22;;;;;;;3.90;2.80;;;16.50;1.00;;;;;;6328108;28;20610;-56
2022/06/17 02:08:25;;;;;;;2.73;2.67;;;16.50;1.00;;;;;;6317429;28;20233;-54
2022/06/17 02:11:29;;;;;;;3.10;2.90;;;16.40;1.00;;;;;;6323204;28;20240;-56
2022/06/17 02:14:34;;;;;;;4.03;2.73;;;16.40;1.00;;;;;;6333300;28;20278;-55
2022/06/17 02:17:41;;;;;;;2.97;2.87;;;16.40;1.00;;;;;;6332182;28;20323;-53
2022/06/17 02:20:50;;;;;;;3.17;2.57;;;16.40;1.00;;;;;;6323795;28;20289;-54
2022/06/17 02:23:54;;;;;;;3.00;2.80;;;16.40;1.00;;;;;;6331900;28;20330;-54
2022/06/17 02:27:02;;;;;;;2.70;2.70;;;16.30;1.00;;;;;;6333030;28;20784;-56
2022/06/17 02:30:07;;;;;;;2.73;2.47;;;16.30;1.00;;;;;;6323343;28;20563;-55
2022/06/17 02:33:12;;;;;;;3.07;2.70;;;16.30;1.00;;;;;;6330872;28;20368;-55
2022/06/17 02:36:20;;;;;;;2.73;2.63;;;16.20;1.00;;;;;;6329981;28;20944;-53
2022/06/17 02:39:23;;;;;;;3.00;2.90;;;16.20;1.00;;;;;;6322408;28;20316;-55
2022/06/17 02:42:32;;;;;;;3.30;3.20;;;16.20;1.00;;;;;;6323949;28;20714;-55
2022/06/17 02:45:41;;;;;;;3.30;3.10;;;16.10;1.00;;;;;;6331068;28;20228;-55
2022/06/17 02:48:49;;;;;;;3.53;3.00;;;16.10;1.00;;;;;;6317470;28;20326;-54
2022/06/17 02:51:53;;;;;;;3.37;3.17;;;16.00;1.00;;;;;;6332960;28;20626;-55
2022/06/17 02:54:59;;;;;;;3.63;3.10;;;16.10;1.00;;;;;;6315999;28;20347;-55
2022/06/17 02:58:13;;;;;;;4.90;3.77;;;16.00;1.00;;;;;;6324979;28;20330;-54
2022/06/17 03:01:18;;;;;;;3.50;3.30;;;16.10;1.00;;;;;;6330788;28;20224;-55
2022/06/17 03:04:25;;;;;;;3.30;3.10;;;16.00;1.00;;;;;;6329269;28;20341;-55
2022/06/17 03:07:31;;;;;;;4.57;3.47;;;16.00;1.00;;;;;;6317863;28;20254;-55
2022/06/17 03:10:37;;;;;;;3.40;3.20;;;16.00;1.00;;;;;;6329309;28;20235;-55
2022/06/17 03:13:46;;;;;;;3.87;3.57;;;15.90;1.00;;;;;;6331429;28;20275;-56
2022/06/17 03:16:52;;;;;;;3.50;3.30;;;15.90;1.00;;;;;;6332051;28;20234;-55
2022/06/17 03:19:57;;;;;;;6.97;5.17;;;15.80;1.00;;;;;;6324010;28;20235;-55
2022/06/17 03:23:06;;;;;;;6.00;5.43;;;15.90;1.00;;;;;;6325451;28;20328;-55
2022/06/17 03:26:14;;;;;;;5.80;5.30;;;15.90;1.00;;;;;;6333681;28;20377;-54
2022/06/17 03:29:19;;;;;;;4.70;4.40;;;15.90;1.00;;;;;;6326271;28;20327;-54
2022/06/17 03:32:28;;;;;;;4.67;4.37;;;15.80;1.00;;;;;;6316331;27;20439;-56
2022/06/17 03:35:33;;;;;;;4.07;3.87;;;15.80;1.00;;;;;;6324768;28;20251;-55
2022/06/17 03:38:43;;;;;;;3.40;3.20;;;15.80;1.00;;;;;;6324269;28;20715;-55
2022/06/17 03:41:51;;;;;;;2.90;2.80;;;15.70;1.00;;;;;;6328409;28;20239;-54
2022/06/17 03:45:02;;;;;;;3.10;2.93;;;15.70;1.00;;;;;;6321777;28;20239;-54
2022/06/17 03:48:15;;;;;;;3.33;3.13;;;15.70;1.00;;;;;;6327899;28;20232;-56
2022/06/17 03:51:25;;;;;;;3.13;3.03;;;15.70;1.00;;;;;;6328358;28;20242;-54
2022/06/17 03:54:28;;;;;;;3.20;3.00;;;15.70;1.00;;;;;;6318719;28;20288;-55
2022/06/17 03:57:32;;;;;;;3.70;3.50;;;15.80;1.00;;;;;;6330336;28;20393;-60
2022/06/17 04:00:43;;;;;;;4.20;4.00;;;15.70;1.00;;;;;;6330040;28;20267;-54
2022/06/17 04:03:51;;;;;;;3.53;3.30;;;15.80;1.00;;;;;;6323697;28;20373;-54
2022/06/17 04:06:56;;;;;;;3.77;3.57;;;15.90;1.00;;;;;;6326570;28;20248;-54
2022/06/17 04:09:59;;;;;;;3.93;3.80;;;15.90;1.00;;;;;;6327770;28;20232;-54
2022/06/17 04:13:02;;;;;;;3.90;3.70;;;15.90;1.00;;;;;;6324096;28;20717;-56
2022/06/17 04:16:18;;;;;;;3.27;3.17;;;15.90;1.00;;;;;;6329280;28;20232;-54
2022/06/17 04:19:24;;;;;;;3.60;3.47;;;16.00;1.00;;;;;;6312288;28;20232;-55
2022/06/17 04:22:28;;;;;;;6.27;4.27;;;16.00;1.00;;;;;;6323039;28;20641;-55
2022/06/17 04:25:36;;;;;;;4.60;4.37;;;16.10;1.00;;;;;;6332805;28;20713;-55
2022/06/17 04:28:43;;;;;;;3.93;3.63;;;16.10;1.00;;;;;;6326635;28;20319;-53
2022/06/17 04:31:53;;;;;;;7.97;4.57;;;16.20;1.00;;;;;;6324169;28;20327;-53
2022/06/17 04:34:56;;;;;;;5.37;4.40;;;16.30;1.00;;;;;;6319147;28;20309;-56
2022/06/17 04:37:59;;;;;;;4.93;4.50;;;16.30;1.00;;;;;;6322528;28;20362;-56
2022/06/17 04:41:06;;;;;;;4.50;4.30;;;16.30;1.00;;;;;;6327882;28;20231;-55
2022/06/17 04:44:13;;;;;;;4.43;4.20;;;16.30;1.00;;;;;;6330619;28;20529;-54
2022/06/17 04:47:20;;;;;;;5.00;4.60;;;16.30;1.00;;;;;;6329530;28;20951;-54
2022/06/17 04:50:26;;;;;;;7.23;4.83;;;16.30;1.00;;;;;;6298121;28;20817;-54
2022/06/17 04:53:30;;;;;;;5.23;4.83;;;16.40;1.00;;;;;;6319389;28;20232;-55
2022/06/17 04:56:40;;;;;;;6.53;4.43;;;16.50;1.00;;;;;;6329496;28;20381;-55
2022/06/17 04:59:46;;;;;;;5.87;5.10;;;16.60;1.00;;;;;;6331016;27;20240;-53
2022/06/17 05:02:50;;;;;;;5.70;5.23;;;16.90;1.00;;;;;;6333740;28;20328;-57
2022/06/17 05:05:53;;;;;;;6.57;4.93;;;17.20;1.00;;;;;;6334447;28;20811;-55
2022/06/17 05:09:05;;;;;;;5.17;4.70;;;17.40;1.00;;;;;;6329326;28;20709;-53
2022/06/17 05:12:15;;;;;;;5.50;4.60;;;17.70;1.00;;;;;;6332416;28;20377;-56
2022/06/17 05:15:21;;;;;;;5.50;5.00;;;17.90;1.00;;;;;;6333948;28;20251;-54
2022/06/17 05:18:25;;;;;;;5.23;4.70;;;18.30;1.00;;;;;;6331818;28;20329;-55
2022/06/17 05:21:28;;;;;;;5.33;4.87;;;18.40;1.00;;;;;;6324840;28;20236;-55
2022/06/17 05:24:32;;;;;;;5.43;4.93;;;18.70;1.00;;;;;;6331527;28;20720;-54
2022/06/17 05:27:35;;;;;;;5.97;5.30;;;19.00;1.00;;;;;;6333993;28;20294;-54
2022/06/17 05:30:40;;;;;;;5.53;4.70;;;19.20;1.00;;;;;;6330729;28;20260;-54
2022/06/17 05:33:44;;;;;;;4.27;3.97;;;19.50;1.00;;;;;;6321449;28;20324;-54
2022/06/17 05:36:47;;;;;;;4.67;3.97;;;19.80;1.00;;;;;;6329093;28;20280;-55
2022/06/17 05:39:50;;;;;;;4.80;4.40;;;20.30;1.00;;;;;;6325694;28;20243;-55
2022/06/17 05:42:53;;;;;;;4.53;3.80;;;20.60;1.00;;;;;;6319417;27;20315;-55
2022/06/17 05:45:55;;;;;;;4.57;4.20;;;20.80;1.00;;;;;;6332090;28;20310;-56
2022/06/17 05:49:00;;;;;;;3.90;3.70;;;20.90;1.00;;;;;;6335689;27;20243;-55
2022/06/17 05:52:03;;;;;;;4.60;4.00;;;21.10;1.00;;;;;;6332550;28;20228;-54
2022/06/17 05:55:06;;;;;;;4.40;4.07;;;21.30;1.00;;;;;;6330678;28;20369;-54
2022/06/17 05:58:09;;;;;;;4.20;3.80;;;21.50;1.00;;;;;;6335144;27;20401;-55
2022/06/17 06:01:12;;;;;;;5.13;3.77;;;21.50;1.00;;;;;;6332408;27;20940;-56
2022/06/17 06:04:16;;;;;;;4.20;3.80;;;21.60;1.00;;;;;;6330011;27;20222;-54
2022/06/17 06:07:19;;;;;;;4.70;4.27;;;21.90;1.00;;;;;;6328666;27;20307;-55
2022/06/17 06:10:24;;;;;;;6.73;3.90;;;22.10;1.00;;;;;;6322683;27;20814;-54
2022/06/17 06:13:26;;;;;;;4.73;4.13;;;22.40;1.00;;;;;;6325499;28;20246;-55
2022/06/17 06:16:30;;;;;;;8.27;4.57;;;22.60;1.00;;;;;;6323581;27;20826;-54
2022/06/17 06:19:34;;;;;;;6.27;3.53;;;22.50;1.00;;;;;;6320989;28;20607;-54
2022/06/17 06:22:37;;;;;;;6.33;4.50;;;22.80;1.00;;;;;;6327612;27;20308;-54
2022/06/17 06:25:41;;;;;;;4.50;4.20;;;22.90;1.00;;;;;;6331247;28;20319;-53
2022/06/17 06:28:44;;;;;;;4.43;4.13;;;23.10;1.00;;;;;;6321544;28;21222;-54
2022/06/17 06:31:49;;;;;;;4.33;4.10;;;22.70;1.00;;;;;;6306914;28;20236;-55
2022/06/17 06:34:53;;;;;;;5.83;3.80;;;22.70;1.00;;;;;;6325161;28;20357;-55
2022/06/17 06:37:56;;;;;;;6.70;4.00;;;23.00;1.00;;;;;;6325762;27;20315;-54
2022/06/17 06:40:59;;;;;;;4.20;3.80;;;23.20;1.00;;;;;;6329412;28;20341;-55
2022/06/17 06:44:02;;;;;;;5.23;4.47;;;23.80;1.00;;;;;;6324761;28;20727;-55
2022/06/17 06:47:06;;;;;;;4.50;4.10;;;24.10;1.00;;;;;;6329344;27;20327;-55
2022/06/17 06:50:15;;;;;;;5.63;4.13;;;24.20;1.00;;;;;;6325494;28;20659;-55
2022/06/17 06:53:18;;;;;;;7.03;4.30;;;24.40;1.00;;;;;;6329187;28;20717;-55
2022/06/17 06:56:22;;;;;;;5.23;4.37;;;24.30;1.00;;;;;;6328336;27;20759;-55
2022/06/17 06:59:24;;;;;;;6.90;3.67;;;24.30;1.00;;;;;;6297501;28;20261;-52
2022/06/17 07:02:27;;;;;;;4.10;3.70;;;24.30;1.00;;;;;;6327672;28;20776;-54
2022/06/17 07:05:33;;;;;;;4.27;3.97;;;24.20;1.00;;;;;;6330260;28;20411;-55
2022/06/17 07:08:37;;;;;;;4.33;3.97;;;24.30;1.00;;;;;;6324094;27;20734;-54
2022/06/17 07:11:40;;;;;;;4.13;3.93;;;24.00;1.00;;;;;;6330903;27;20300;-55
2022/06/17 07:14:43;;;;;;;4.67;4.27;;;23.90;1.00;;;;;;6332158;28;20570;-54
2022/06/17 07:17:54;;;;;;;4.03;3.83;;;24.00;1.00;;;;;;6331496;27;20700;-55
2022/06/17 07:21:01;;;;;;;3.80;3.50;;;24.00;1.00;;;;;;6327735;27;20698;-55
2022/06/17 07:24:04;;;;;;;4.27;3.90;;;23.90;1.00;;;;;;6326851;27;20323;-54
2022/06/17 07:27:07;;;;;;;5.47;3.83;;;24.00;1.00;;;;;;6331150;27;20258;-54
2022/06/17 07:30:15;;;;;;;4.53;3.97;;;24.00;1.00;;;;;;6325587;28;20519;-54
2022/06/17 07:33:20;;;;;;;3.90;3.70;;;24.00;1.00;;;;;;6326225;28;20227;-54
2022/06/17 07:39:58;;;;;;;3.77;3.50;;;23.70;1.00;;;;;;6323032;28;20240;-55
2022/06/17 07:43:01;;;;;;;4.13;3.73;;;23.50;1.00;;;;;;6324896;28;20239;-54
2022/06/17 07:46:06;;;;;;;4.23;3.63;;;23.30;1.00;;;;;;6331139;28;20474;-54
2022/06/17 07:49:09;;;;;;;3.27;3.00;;;22.90;1.00;;;;;;6328461;28;20553;-54
2022/06/17 07:52:14;;;;;;;4.53;3.60;;;22.80;1.00;;;;;;6332108;27;20309;-57
2022/06/17 07:55:18;;;;;;;3.57;3.33;;;22.70;1.00;;;;;;6324334;28;20243;-55
2022/06/17 07:58:21;;;;;;;3.70;3.40;;;22.60;1.00;;;;;;6329585;28;20231;-54
2022/06/17 08:01:24;;;;;;;3.50;3.30;;;22.60;1.00;;;;;;6325877;28;20220;-53
2022/06/17 08:04:27;;;;;;;3.33;3.13;;;22.50;1.00;;;;;;6323662;28;20235;-56
2022/06/17 08:07:32;;;;;;;3.50;3.17;;;22.50;1.00;;;;;;6325007;28;20701;-55
2022/06/17 08:10:36;;;;;;;4.27;3.77;;;22.50;1.00;;;;;;6323217;28;20296;-54
2022/06/17 08:13:40;;;;;;;3.37;3.03;;;22.60;1.00;;;;;;6325877;28;20316;-54
2022/06/17 08:16:43;;;;;;;9.90;3.60;;;22.50;1.00;;;;;;6329660;28;20294;-54
2022/06/17 08:19:46;;;;;;;4.50;4.10;;;22.60;1.00;;;;;;6324000;28;20704;-54
2022/06/17 08:22:50;;;;;;;3.30;3.10;;;22.60;1.00;;;;;;6328266;28;20721;-55
2022/06/17 08:25:54;;;;;;;3.37;3.13;;;22.60;1.00;;;;;;6325887;28;20229;-54
2022/06/17 08:28:57;;;;;;;4.33;3.40;;;22.40;1.00;;;;;;6326136;28;20700;-55
2022/06/17 08:35:21;;;;;;;3.50;3.20;;;22.50;1.00;;;;;;6334720;28;20236;-56
2022/06/17 08:38:32;;;;;;;4.80;3.13;;;22.50;1.00;;;;;;6327171;28;20256;-54
2022/06/17 08:41:37;;;;;;;4.50;3.53;;;22.50;1.00;;;;;;6332524;27;20315;-56
2022/06/17 08:44:48;;;;;;;3.40;3.10;;;22.50;1.00;;;;;;6320445;28;20257;-53
2022/06/17 08:48:08;;;;;;;3.27;3.00;;;22.60;1.00;;;;;;6333303;27;20739;-54
2022/06/17 08:51:24;;;;;;;5.50;2.70;;;22.60;1.00;;;;;;6331706;28;20720;-54
2022/06/17 08:54:39;;;;;;;4.03;2.53;;;22.60;1.00;;;;;;6330104;27;20233;-55
2022/06/17 08:57:53;;;;;;;4.17;2.83;;;22.60;1.00;;;;;;6330820;28;20270;-54
2022/06/17 09:01:02;;;;;;;4.03;2.63;;;22.70;1.00;;;;;;6335145;27;20239;-55
2022/06/17 09:04:21;;;;;;;2.87;2.47;;;23.00;1.00;;;;;;6329877;27;20308;-55
2022/06/17 09:07:42;;;;;;;2.30;2.20;;;23.30;1.00;;;;;;6335372;27;20610;-53
2022/06/17 09:10:57;;;;;;;2.87;2.67;;;23.50;1.00;;;;;;6329245;28;20477;-54
2022/06/17 09:14:18;;;;;;;2.63;2.53;;;23.60;1.00;;;;;;6324924;28;20636;-54
2022/06/17 09:17:31;;;;;;;3.50;2.63;;;23.70;1.00;;;;;;6337140;27;20658;-54
2022/06/17 09:20:44;;;;;;;5.17;2.57;;;23.90;1.00;;;;;;6322232;27;20247;-55
2022/06/17 09:23:48;;;;;;;3.33;2.40;;;24.20;1.00;;;;;;6319566;28;20247;-55
2022/06/17 09:26:57;;;;;;;2.50;2.50;;;24.20;1.00;;;;;;6330066;28;20319;-57
2022/06/17 09:30:04;;;;;;;2.77;2.60;;;24.30;1.00;;;;;;6332338;28;20512;-54
2022/06/17 09:33:10;;;;;;;2.83;2.63;;;24.30;1.00;;;;;;6334058;27;20740;-54
2022/06/17 09:36:17;;;;;;;2.43;2.40;;;24.00;1.00;;;;;;6327802;28;20228;-55
2022/06/17 09:39:28;;;;;;;2.70;2.50;;;24.00;1.00;;;;;;6317013;27;20323;-56
2022/06/17 09:42:39;;;;;;;5.80;2.70;;;24.00;1.00;;;;;;6330671;28;20289;-55
2022/06/17 09:45:50;;;;;;;4.10;3.90;;;24.10;1.00;;;;;;6333183;28;20703;-54
2022/06/17 09:49:04;;;;;;;2.53;2.40;;;24.10;1.00;;;;;;6332460;28;20220;-54
2022/06/17 09:52:11;;;;;;;2.17;2.17;;;24.00;1.00;;;;;;6333456;27;20693;-53
2022/06/17 09:55:18;;;;;;;4.00;2.40;;;24.20;1.00;;;;;;6331963;28;20799;-54
2022/06/17 09:58:30;;;;;;;2.63;2.43;;;24.30;1.00;;;;;;6329707;28;20274;-54
2022/06/17 10:01:33;;;;;;;2.50;2.40;;;24.50;1.00;;;;;;6298114;28;20792;-54
2022/06/17 10:04:36;;;;;;;4.00;2.20;;;24.20;1.00;;;;;;6333742;28;20251;-55
2022/06/17 10:07:48;;;;;;;2.50;2.30;;;24.20;1.00;;;;;;6326562;28;20237;-54
2022/06/17 10:10:59;;;;;;;3.57;2.20;;;24.30;1.00;;;;;;6331668;27;20238;-55
2022/06/17 10:14:17;;;;;;;3.43;3.23;;;24.30;1.00;;;;;;6333908;28;20787;-54
2022/06/17 10:21:01;;;;;;;2.40;2.30;;;24.30;1.00;;;;;;6338182;27;20242;-55
2022/06/17 10:24:15;;;;;;;2.17;2.13;;;24.10;1.00;;;;;;6326764;27;20382;-55
2022/06/17 10:27:31;;;;;;;2.33;2.23;;;24.20;1.00;;;;;;6336527;27;20708;-54
2022/06/17 10:30:58;;;;;;;2.97;2.77;;;24.40;1.00;;;;;;6333150;28;20220;-52
2022/06/17 10:34:05;;;;;;;2.87;2.70;;;24.50;1.00;;;;;;6332403;28;20299;-54
2022/06/17 10:37:15;;;;;;;2.33;2.20;;;24.70;1.00;;;;;;6333084;27;20235;-54
2022/06/17 10:40:41;;;;;;;2.30;2.20;;;24.90;1.00;;;;;;6325353;28;20689;-54
2022/06/17 10:43:47;;;;;;;3.97;2.43;;;25.00;1.00;;;;;;6331579;27;20246;-54
2022/06/17 10:46:58;;;;;;;2.57;2.37;;;25.10;1.00;;;;;;6333698;27;20751;-56
2022/06/17 10:50:06;;;;;;;2.60;2.40;;;25.30;1.00;;;;;;6323891;28;20239;-54
2022/06/17 10:53:15;;;;;;;2.60;2.53;;;25.20;1.00;;;;;;6291711;28;20356;-54
2022/06/17 10:56:22;;;;;;;3.00;2.80;;;25.30;1.00;;;;;;6294983;27;20645;-55
2022/06/17 10:59:33;;;;;;;2.33;2.33;;;25.40;1.00;;;;;;6330745;28;20411;-53
2022/06/17 11:02:37;;;;;;;2.30;2.23;;;25.20;1.00;;;;;;6321753;28;20236;-55
2022/06/17 11:05:40;;;;;;;2.07;1.97;;;25.10;1.00;;;;;;6332276;27;20848;-54
2022/06/17 11:08:55;;;;;;;2.40;2.30;;;25.10;1.00;;;;;;6328605;28;20242;-54
2022/06/17 11:12:04;;;;;;;1.87;1.87;;;25.10;1.00;;;;;;6319139;28;20792;-55
2022/06/17 11:15:21;;;;;;;2.40;2.20;;;25.20;1.00;;;;;;6321393;27;20228;-53
2022/06/17 11:18:30;;;;;;;2.13;2.13;;;25.10;1.00;;;;;;6326275;27;20545;-54
2022/06/17 11:21:38;;;;;;;2.70;2.60;;;25.20;1.00;;;;;;6327721;27;20620;-55
2022/06/17 11:24:42;;;;;;;2.30;2.17;;;25.20;1.00;;;;;;6325225;28;20255;-54
2022/06/17 11:27:53;;;;;;;2.27;2.27;;;25.20;1.00;;;;;;6319121;28;20785;-54
2022/06/17 11:30:58;;;;;;;2.37;2.17;;;25.30;1.00;;;;;;6322575;27;20231;-53
2022/06/17 11:34:11;;;;;;;2.20;2.00;;;25.30;1.00;;;;;;6335421;27;20238;-55
2022/06/17 11:37:18;;;;;;;2.40;2.30;;;25.30;1.00;;;;;;6321298;28;20252;-53
2022/06/17 11:40:24;;;;;;;2.20;2.10;;;25.40;1.00;;;;;;6317017;28;20821;-55
2022/06/17 11:43:34;;;;;;;2.20;2.00;;;25.70;1.00;;;;;;6319222;28;20641;-55
2022/06/17 11:46:49;;;;;;;2.57;1.97;;;26.00;1.00;;;;;;6315960;28;20243;-55
2022/06/17 11:49:55;;;;;;;2.43;2.33;;;26.10;1.00;;;;;;6324469;28;20263;-54
2022/06/17 11:53:05;;;;;;;2.13;2.13;;;26.10;1.00;;;;;;6319692;28;20247;-53
2022/06/17 11:56:09;;;;;;;2.33;2.23;;;26.00;1.00;;;;;;6331766;28;20235;-54
2022/06/17 11:59:40;;;;;;;2.93;2.00;;;26.00;1.00;;;;;;6328206;28;20243;-54
2022/06/17 12:02:54;;;;;;;2.30;2.30;;;26.20;1.00;;;;;;6328555;28;20285;-54
2022/06/17 12:06:01;;;;;;;2.33;2.23;;;26.10;1.00;;;;;;6327271;28;20376;-54
2022/06/17 12:09:09;;;;;;;2.97;2.40;;;26.10;1.00;;;;;;6329745;27;20440;-53
2022/06/17 12:12:19;;;;;;;2.60;2.40;;;26.10;1.00;;;;;;6332084;28;20231;-55
2022/06/17 12:15:28;;;;;;;1.93;1.93;;;26.30;1.00;;;;;;6333018;27;20453;-55
2022/06/17 12:18:36;;;;;;;1.70;1.70;;;26.30;1.00;;;;;;6328363;28;20603;-55
2022/06/17 12:21:49;;;;;;;1.90;1.90;;;26.30;1.00;;;;;;6331309;27;20521;-54
2022/06/17 12:24:59;;;;;;;2.07;1.97;;;26.40;1.00;;;;;;6330023;28;20362;-55
2022/06/17 12:28:11;;;;;;;2.03;1.90;;;26.30;1.00;;;;;;6332758;27;20320;-56
2022/06/17 12:31:25;;;;;;;2.30;2.20;;;26.30;1.00;;;;;;6330632;27;20228;-54
2022/06/17 12:34:35;;;;;;;2.10;2.00;;;26.40;1.00;;;;;;6332509;27;20284;-53
2022/06/17 12:37:46;;;;;;;2.53;2.10;;;26.30;1.00;;;;;;6328879;28;20752;-53
2022/06/17 12:40:54;;;;;;;1.90;1.90;;;26.40;1.00;;;;;;6323226;27;20236;-54
2022/06/17 12:44:20;;;;;;;2.23;2.13;;;26.70;1.00;;;;;;6277636;28;20221;-52
2022/06/17 12:47:34;;;;;;;1.87;1.87;;;26.90;1.00;;;;;;6327044;27;20237;-55
2022/06/17 12:54:21;;;;;;;2.03;2.03;;;27.00;1.00;;;;;;6324209;27;20283;-53
2022/06/17 12:57:35;;;;;;;1.67;1.67;;;27.10;1.00;;;;;;6330296;28;20637;-54
2022/06/17 13:00:42;;;;;;;3.90;2.33;;;27.40;1.00;;;;;;6301189;28;20262;-52
2022/06/17 13:04:13;;;;;;;1.80;1.80;;;27.60;1.00;;;;;;6330375;28;20377;-54
2022/06/17 13:07:20;;;;;;;1.60;1.60;;;27.40;1.00;;;;;;6323476;28;20246;-53
2022/06/17 13:14:02;;;;;;;1.70;1.63;;;27.50;1.00;;;;;;6324995;28;20231;-55
2022/06/17 13:17:10;;;;;;;1.70;1.70;;;27.40;1.00;;;;;;6327682;28;20232;-54
2022/06/17 13:20:18;;;;;;;3.57;2.03;;;27.50;1.00;;;;;;6323129;28;20322;-54
2022/06/17 13:23:29;;;;;;;2.17;2.03;;;27.60;1.00;;;;;;6326557;28;20568;-54
2022/06/17 13:26:38;;;;;;;2.30;2.30;;;27.60;1.00;;;;;;6327982;28;20227;-54
2022/06/17 13:29:48;;;;;;;3.13;1.90;;;27.50;1.00;;;;;;6326285;28;20688;-55
2022/06/17 13:32:58;;;;;;;1.90;1.90;;;27.60;1.00;;;;;;6323771;28;21671;-54
2022/06/17 13:36:04;;;;;;;1.67;1.57;;;27.50;1.00;;;;;;6327831;28;20329;-54
2022/06/17 13:39:12;;;;;;;1.97;1.87;;;27.60;1.00;;;;;;6302565;28;20714;-53
2022/06/17 13:42:18;;;;;;;1.90;1.90;;;27.70;1.00;;;;;;6327759;28;20261;-53
2022/06/17 13:45:33;;;;;;;2.00;1.90;;;27.60;1.00;;;;;;6327373;28;20446;-54
2022/06/17 13:48:44;;;;;;;2.00;1.87;;;27.50;1.00;;;;;;6323080;28;20232;-53
2022/06/17 13:51:58;;;;;;;1.87;1.87;;;27.50;1.00;;;;;;6327233;28;20236;-53
2022/06/17 13:55:21;;;;;;;1.60;1.60;;;27.50;1.00;;;;;;6324877;28;20327;-54
2022/06/17 13:58:34;;;;;;;1.70;1.70;;;27.70;1.00;;;;;;6327680;28;20535;-53
2022/06/17 14:01:41;;;;;;;2.20;2.10;;;27.70;1.00;;;;;;6325907;27;20807;-54
2022/06/17 14:05:21;;;;;;;2.30;2.20;;;27.70;1.00;;;;;;6324497;27;20241;-53
2022/06/17 14:08:47;;;;;;;2.50;2.40;;;27.70;1.00;;;;;;6327780;27;20315;-53
2022/06/17 14:12:44;;;;;;;2.50;2.40;;;27.50;1.00;;;;;;6326166;28;20232;-60
2022/06/17 14:15:51;;;;;;;2.50;2.40;;;27.20;1.00;;;;;;6328660;27;20708;-55
2022/06/17 14:19:00;;;;;;;4.53;2.57;;;27.20;1.00;;;;;;6328125;27;20674;-53
2022/06/17 14:22:04;;;;;;;3.00;2.50;;;27.10;1.00;;;;;;6325757;27;20327;-54
2022/06/17 14:25:27;;;;;;;2.53;2.37;;;26.80;1.00;;;;;;6317365;27;20239;-54
2022/06/17 14:28:42;;;;;;;3.27;3.00;;;26.70;1.00;;;;;;6325420;27;20483;-53
2022/06/17 14:31:48;;;;;;;2.90;2.80;;;26.80;1.00;;;;;;6315329;28;20231;-55
2022/06/17 14:35:01;;;;;;;2.37;2.37;;;27.00;1.00;;;;;;6327167;27;20732;-54
2022/06/17 14:38:17;;;;;;;4.03;2.70;;;27.10;1.00;;;;;;6326130;27;20232;-53
2022/06/17 14:45:27;;;;;;;2.60;2.50;;;27.00;1.00;;;;;;6331626;27;20589;-54
2022/06/17 14:48:37;;;;;;;2.27;2.23;;;27.10;1.00;;;;;;6326317;27;20270;-55
2022/06/17 14:51:45;;;;;;;2.67;2.47;;;27.30;1.00;;;;;;6318283;27;20247;-55
2022/06/17 14:54:58;;;;;;;3.60;2.50;;;27.50;1.00;;;;;;6321136;28;20365;-54
2022/06/17 14:58:13;;;;;;;2.40;2.30;;;27.60;1.00;;;;;;6325023;28;20224;-53
2022/06/17 15:01:19;;;;;;;9.10;2.77;;;27.60;1.00;;;;;;6324028;28;20231;-53
2022/06/17 15:04:36;;;;;;;2.13;2.07;;;27.60;1.00;;;;;;6322256;28;20881;-53
2022/06/17 15:07:49;;;;;;;2.87;2.77;;;27.50;1.00;;;;;;6320588;28;20526;-54
2022/06/17 15:11:00;;;;;;;3.63;3.00;;;27.60;1.00;;;;;;6322212;28;20825;-53
2022/06/17 15:14:14;;;;;;;2.80;2.67;;;27.10;1.00;;;;;;6319499;28;20251;-53
2022/06/17 15:17:20;;;;;;;2.67;2.47;;;27.00;1.00;;;;;;6322930;28;20263;-52
2022/06/17 15:20:29;;;;;;;2.67;2.57;;;27.00;1.00;;;;;;6317163;28;20729;-54
2022/06/17 15:23:38;;;;;;;2.83;2.70;;;27.20;1.00;;;;;;6322571;28;20232;-53
2022/06/17 15:26:52;;;;;;;3.17;2.97;;;26.90;1.00;;;;;;6322781;28;20394;-56
2022/06/17 15:30:00;;;;;;;2.47;2.47;;;27.00;1.00;;;;;;6319794;28;20233;-53
2022/06/17 15:33:15;;;;;;;2.73;2.53;;;27.20;1.00;;;;;;6322728;28;20607;-53
2022/06/17 15:36:25;;;;;;;3.07;3.07;;;27.40;1.00;;;;;;6322417;28;20285;-54
2022/06/17 15:39:43;;;;;;;2.60;2.40;;;27.40;1.00;;;;;;6321453;28;20347;-55
2022/06/17 15:42:57;;;;;;;5.07;3.10;;;27.40;1.00;;;;;;6324999;27;20293;-54
2022/06/17 15:46:14;;;;;;;2.87;2.77;;;27.20;1.00;;;;;;6325222;27;20330;-53
2022/06/17 15:49:22;;;;;;;3.13;2.83;;;27.20;1.00;;;;;;6316507;28;20229;-54
2022/06/17 15:52:28;;;;;;;6.87;2.50;;;27.20;1.00;;;;;;6322300;28;20236;-54
2022/06/17 15:55:37;;;;;;;2.37;2.27;;;27.20;1.00;;;;;;6324297;28;20835;-54
2022/06/17 15:59:07;;;;;;;3.30;2.77;;;27.30;1.00;;;;;;6322436;28;20227;-55
2022/06/17 16:02:18;;;;;;;3.13;3.00;;;27.40;1.00;;;;;;6323760;28;20246;-54
2022/06/17 16:05:25;;;;;;;3.10;3.00;;;27.40;1.00;;;;;;6321615;28;20345;-54
2022/06/17 16:08:39;;;;;;;3.27;2.87;;;27.50;1.00;;;;;;6316359;28;20865;-53
2022/06/17 16:11:42;;;;;;;2.60;2.37;;;27.40;1.00;;;;;;6323515;28;20280;-55
2022/06/17 16:14:53;;;;;;;2.40;2.40;;;27.40;1.00;;;;;;6322491;28;20235;-55
2022/06/17 16:17:57;;;;;;;2.83;2.60;;;27.40;1.00;;;;;;6320647;28;20733;-53
2022/06/17 16:21:20;;;;;;;4.67;2.73;;;27.30;1.00;;;;;;6323471;28;20243;-54
2022/06/17 16:24:54;;;;;;;3.07;2.43;;;27.20;1.00;;;;;;6322272;28;20235;-54
2022/06/17 16:27:59;;;;;;;2.87;2.30;;;27.10;1.00;;;;;;6321464;28;20712;-54
2022/06/17 16:31:03;;;;;;;3.03;2.67;;;27.10;1.00;;;;;;6322420;28;20303;-54
2022/06/17 16:34:14;;;;;;;2.60;2.50;;;27.10;1.00;;;;;;6324251;28;20311;-53
2022/06/17 16:37:21;;;;;;;2.40;2.30;;;26.90;1.00;;;;;;6321736;28;20228;-55
2022/06/17 16:44:13;;;;;;;2.50;2.40;;;26.90;1.00;;;;;;6319495;28;20229;-54
2022/06/17 16:47:16;;;;;;;2.20;2.20;;;27.00;1.00;;;;;;6316432;28;20243;-50
2022/06/17 16:50:21;;;;;;;4.43;2.53;;;26.90;1.00;;;;;;6323637;28;20385;-53
2022/06/17 16:53:24;;;;;;;2.53;2.43;;;26.80;1.00;;;;;;6320345;28;20248;-54
2022/06/17 16:56:32;;;;;;;3.00;2.80;;;26.70;1.00;;;;;;6328083;28;20274;-54
2022/06/17 16:59:35;;;;;;;2.70;2.50;;;26.60;1.00;;;;;;6326660;28;20240;-58
2022/06/17 17:02:38;;;;;;;2.57;2.57;;;26.40;1.00;;;;;;6331111;27;20246;-54